Time;durP1;ratioP1;P1;durP2;ratioP2;P2;SDS_P1;SDS_P2;PMS_P1;PMS_P2;Temp;Humidity;BMP_temperature;BMP_pressure;BME280_temperature;BME280_humidity;BME280_pressure;Samples;Min_cycle;Max_cycle;Signal;HPM_P1;HPM_P2
2021/05/18 00:01:09;;;;;;;1.60;0.50;;;;;;;;;;5033975;28;20568;-48
2021/05/18 00:03:36;;;;;;;1.35;0.60;;;;;;;;;;5033753;28;20057;-50
2021/05/18 00:06:04;;;;;;;0.85;0.50;;;;;;;;;;5034069;28;20054;-48
2021/05/18 00:08:33;;;;;;;1.00;0.60;;;;;;;;;;5033349;28;20503;-51
2021/05/18 00:13:48;;;;;;;1.35;0.60;;;;;;;;;;5033295;28;20057;-50
2021/05/18 00:16:15;;;;;;;0.73;0.55;;;;;;;;;;5046486;28;20060;-51
2021/05/18 00:18:42;;;;;;;0.90;0.43;;;;;;;;;;5053292;28;20060;-49
2021/05/18 00:21:10;;;;;;;1.00;0.52;;;;;;;;;;5053612;28;20056;-48
2021/05/18 00:23:37;;;;;;;0.93;0.57;;;;;;;;;;5047395;28;20041;-47
2021/05/18 00:26:04;;;;;;;1.38;0.60;;;;;;;;;;5033195;28;20049;-48
2021/05/18 00:28:32;;;;;;;2.08;1.08;;;;;;;;;;5032840;28;20053;-51
2021/05/18 00:30:59;;;;;;;2.10;0.63;;;;;;;;;;5033230;28;20050;-48
2021/05/18 00:33:26;;;;;;;1.70;0.70;;;;;;;;;;5032728;28;20049;-50
2021/05/18 00:36:01;;;;;;;0.47;0.40;;;;;;;;;;5033341;28;20111;-48
2021/05/18 00:38:28;;;;;;;0.77;0.50;;;;;;;;;;5037034;28;20045;-50
2021/05/18 00:40:55;;;;;;;1.15;0.50;;;;;;;;;;5051959;28;20056;-47
2021/05/18 00:43:22;;;;;;;1.70;0.45;;;;;;;;;;5051857;28;20049;-50
2021/05/18 00:45:50;;;;;;;1.52;0.50;;;;;;;;;;5038649;28;20049;-47
2021/05/18 00:48:17;;;;;;;1.23;0.50;;;;;;;;;;5032062;28;20124;-48
2021/05/18 00:50:45;;;;;;;0.70;0.40;;;;;;;;;;5032996;28;20204;-48
2021/05/18 00:53:15;;;;;;;0.75;0.50;;;;;;;;;;5032652;28;20048;-48
2021/05/18 00:55:55;;;;;;;1.15;0.40;;;;;;;;;;5031789;28;20037;-50
2021/05/18 00:58:33;;;;;;;1.08;0.40;;;;;;;;;;5032692;28;20046;-48
2021/05/18 01:01:02;;;;;;;0.43;0.32;;;;;;;;;;5047147;28;20054;-47
2021/05/18 01:03:30;;;;;;;0.40;0.20;;;;;;;;;;5030297;28;20049;-49
2021/05/18 01:08:43;;;;;;;0.93;0.40;;;;;;;;;;5032152;28;20404;-48
2021/05/18 01:11:10;;;;;;;0.93;0.40;;;;;;;;;;5032595;28;20504;-47
2021/05/18 01:13:37;;;;;;;0.30;0.30;;;;;;;;;;5032384;28;20079;-49
2021/05/18 01:16:04;;;;;;;0.90;0.22;;;;;;;;;;5032447;28;20054;-46
2021/05/18 01:18:39;;;;;;;0.30;0.30;;;;;;;;;;5032116;28;20505;-49
2021/05/18 01:21:07;;;;;;;0.30;0.30;;;;;;;;;;5032415;28;20132;-52
2021/05/18 01:23:34;;;;;;;0.50;0.35;;;;;;;;;;5032001;28;20077;-47
2021/05/18 01:26:01;;;;;;;0.35;0.20;;;;;;;;;;5032037;28;20055;-50
2021/05/18 01:28:28;;;;;;;0.43;0.20;;;;;;;;;;5031844;28;20395;-50
2021/05/18 01:30:56;;;;;;;0.98;0.25;;;;;;;;;;5030819;28;20128;-49
2021/05/18 01:33:24;;;;;;;0.30;0.30;;;;;;;;;;5031990;28;20045;-49
2021/05/18 01:35:51;;;;;;;0.75;0.30;;;;;;;;;;5031671;28;20053;-49
2021/05/18 01:38:22;;;;;;;2.10;0.38;;;;;;;;;;5033294;28;20064;-49
2021/05/18 01:43:37;;;;;;;1.90;0.40;;;;;;;;;;5044377;28;20053;-49
2021/05/18 01:46:06;;;;;;;1.33;0.20;;;;;;;;;;5046428;28;20060;-47
2021/05/18 01:48:36;;;;;;;0.22;0.22;;;;;;;;;;5031378;28;20132;-50
2021/05/18 01:51:03;;;;;;;1.35;0.32;;;;;;;;;;5030630;28;20047;-47
2021/05/18 01:53:30;;;;;;;3.15;0.30;;;;;;;;;;5029997;28;20045;-47
2021/05/18 01:58:26;;;;;;;0.32;0.30;;;;;;;;;;5031105;28;20067;-47
2021/05/18 02:01:06;;;;;;;0.98;0.20;;;;;;;;;;5030052;28;20061;-47
2021/05/18 02:03:33;;;;;;;0.80;0.40;;;;;;;;;;5031394;28;20530;-48
2021/05/18 02:06:01;;;;;;;0.35;0.20;;;;;;;;;;5030293;28;20145;-47
2021/05/18 02:08:43;;;;;;;0.10;0.10;;;;;;;;;;5029985;28;20084;-47
2021/05/18 02:11:17;;;;;;;0.30;0.30;;;;;;;;;;5013934;28;20049;-49
2021/05/18 02:13:51;;;;;;;1.13;0.30;;;;;;;;;;5031262;28;20388;-47
2021/05/18 02:16:32;;;;;;;0.90;0.30;;;;;;;;;;5029679;28;20045;-49
2021/05/18 02:25:01;;;;;;;1.27;0.40;;;;;;;;;;5060569;28;20436;-45
2021/05/18 02:27:48;;;;;;;1.08;0.50;;;;;;;;;;5032303;28;20092;-47
2021/05/18 02:30:16;;;;;;;0.85;0.40;;;;;;;;;;5049784;28;20418;-49
2021/05/18 02:32:45;;;;;;;0.30;0.30;;;;;;;;;;5050006;28;20077;-47
2021/05/18 02:35:30;;;;;;;0.25;0.25;;;;;;;;;;5049754;28;20044;-49
2021/05/18 02:37:56;;;;;;;0.35;0.30;;;;;;;;;;5031966;28;20376;-47
2021/05/18 02:40:27;;;;;;;0.40;0.30;;;;;;;;;;5051000;28;20056;-47
2021/05/18 02:42:56;;;;;;;0.47;0.47;;;;;;;;;;5049650;28;20466;-46
2021/05/18 02:45:32;;;;;;;1.15;0.40;;;;;;;;;;5033304;28;20553;-47
2021/05/18 02:50:48;;;;;;;1.95;0.50;;;;;;;;;;5049425;28;20095;-46
2021/05/18 02:53:20;;;;;;;0.80;0.40;;;;;;;;;;5049358;28;20048;-47
2021/05/18 02:58:18;;;;;;;2.72;0.40;;;;;;;;;;5043577;28;20050;-49
2021/05/18 03:00:45;;;;;;;0.40;0.40;;;;;;;;;;5030948;28;20521;-47
2021/05/18 03:03:12;;;;;;;1.25;0.60;;;;;;;;;;5030742;28;20144;-47
2021/05/18 03:05:39;;;;;;;2.25;0.40;;;;;;;;;;5031078;28;20046;-46
2021/05/18 03:08:09;;;;;;;1.30;0.45;;;;;;;;;;5021193;28;20097;-47
2021/05/18 03:10:36;;;;;;;1.13;0.40;;;;;;;;;;5029856;28;20050;-46
2021/05/18 03:13:03;;;;;;;1.08;0.40;;;;;;;;;;5033109;28;20041;-47
2021/05/18 03:15:31;;;;;;;0.60;0.43;;;;;;;;;;5039530;28;20491;-47
2021/05/18 03:17:58;;;;;;;0.77;0.40;;;;;;;;;;5054111;28;20453;-47
2021/05/18 03:20:25;;;;;;;2.15;0.52;;;;;;;;;;5054562;28;20067;-46
2021/05/18 03:22:52;;;;;;;1.20;0.50;;;;;;;;;;5049902;28;20053;-48
2021/05/18 03:25:19;;;;;;;1.80;0.40;;;;;;;;;;5033103;28;20053;-46
2021/05/18 03:27:46;;;;;;;0.40;0.40;;;;;;;;;;5033822;28;22420;-46
2021/05/18 03:35:31;;;;;;;0.40;0.40;;;;;;;;;;5034036;28;20204;-46
2021/05/18 03:38:02;;;;;;;1.40;0.50;;;;;;;;;;5034631;28;20136;-47
2021/05/18 03:40:30;;;;;;;0.40;0.32;;;;;;;;;;5054002;28;20057;-51
2021/05/18 03:43:34;;;;;;;1.05;0.40;;;;;;;;;;5053779;28;20049;-48
2021/05/18 04:21:17;;;;;;;1.58;0.30;;;;;;;;;;5033737;28;20060;-46
2021/05/18 04:51:01;;;;;;;0.28;0.28;;;;;;;;;;5032350;28;20053;-48
2021/05/18 04:59:03;;;;;;;2.10;0.40;;;;;;;;;;5031420;28;20482;-46
2021/05/18 05:01:51;;;;;;;1.67;0.40;;;;;;;;;;5047504;28;20046;-48
2021/05/18 05:07:09;;;;;;;1.38;0.30;;;;;;;;;;5031427;28;20445;-50
2021/05/18 05:09:41;;;;;;;0.65;0.30;;;;;;;;;;5049439;28;20057;-47
2021/05/18 05:14:48;;;;;;;0.30;0.30;;;;;;;;;;5051787;28;20053;-47
2021/05/18 05:17:15;;;;;;;1.35;0.30;;;;;;;;;;5033973;28;20057;-50
2021/05/18 05:19:43;;;;;;;0.30;0.30;;;;;;;;;;5031811;28;20057;-49
2021/05/18 05:22:10;;;;;;;2.15;0.40;;;;;;;;;;5031551;28;20053;-49
2021/05/18 05:24:40;;;;;;;1.17;0.40;;;;;;;;;;5057921;28;20530;-49
2021/05/18 05:27:07;;;;;;;0.35;0.20;;;;;;;;;;5052964;28;20418;-48
2021/05/18 05:29:54;;;;;;;1.23;0.50;;;;;;;;;;5032573;28;20042;-47
2021/05/18 05:32:21;;;;;;;0.68;0.30;;;;;;;;;;5047403;28;20049;-51
2021/05/18 05:34:48;;;;;;;0.47;0.30;;;;;;;;;;5050836;28;20049;-47
2021/05/18 05:37:15;;;;;;;4.50;0.50;;;;;;;;;;5038070;28;20076;-51
2021/05/18 05:39:42;;;;;;;1.75;0.47;;;;;;;;;;5052366;28;20801;-50
2021/05/18 05:42:09;;;;;;;0.32;0.20;;;;;;;;;;5035231;28;20049;-47
2021/05/18 05:44:36;;;;;;;1.80;0.40;;;;;;;;;;5030871;28;20053;-49
2021/05/18 05:47:03;;;;;;;1.35;0.60;;;;;;;;;;5044089;28;20095;-47
2021/05/18 05:49:30;;;;;;;0.40;0.40;;;;;;;;;;5051236;28;20052;-49
2021/05/18 05:51:56;;;;;;;0.63;0.28;;;;;;;;;;5032287;28;20049;-49
2021/05/18 05:54:24;;;;;;;1.00;0.43;;;;;;;;;;5031834;28;20049;-49
2021/05/18 05:56:50;;;;;;;2.38;0.70;;;;;;;;;;5036765;28;20073;-47
2021/05/18 05:59:19;;;;;;;0.93;0.40;;;;;;;;;;5048599;28;20064;-47
2021/05/18 06:01:47;;;;;;;1.27;0.40;;;;;;;;;;5034447;28;20056;-47
2021/05/18 06:04:14;;;;;;;1.80;0.50;;;;;;;;;;5042265;28;20060;-48
2021/05/18 06:06:40;;;;;;;2.03;0.40;;;;;;;;;;5031026;28;20045;-51
2021/05/18 06:09:09;;;;;;;0.82;0.45;;;;;;;;;;5045738;28;20494;-50
2021/05/18 06:48:31;;;;;;;0.30;0.30;;;;;;;;;;5069627;28;20073;-49
2021/05/18 06:50:58;;;;;;;1.58;0.40;;;;;;;;;;5062182;28;20128;-50
2021/05/18 06:53:25;;;;;;;0.75;0.60;;;;;;;;;;5060889;28;20571;-47
2021/05/18 06:55:53;;;;;;;0.30;0.30;;;;;;;;;;5052378;28;20045;-51
2021/05/18 07:01:13;;;;;;;4.25;0.57;;;;;;;;;;5063306;28;20060;-49
2021/05/18 07:03:56;;;;;;;0.30;0.30;;;;;;;;;;5051909;28;20045;-47
2021/05/18 07:06:48;;;;;;;0.32;0.30;;;;;;;;;;5041989;28;20136;-53
2021/05/18 07:09:10;;;;;;;1.85;0.65;;;;;;;;;;5051079;28;20064;-50
2021/05/18 07:11:37;;;;;;;0.30;0.30;;;;;;;;;;5033580;28;20119;-49
2021/05/18 07:14:04;;;;;;;0.45;0.30;;;;;;;;;;5032961;28;20050;-50
2021/05/18 07:16:31;;;;;;;0.75;0.47;;;;;;;;;;5032785;28;20053;-48
2021/05/18 07:18:59;;;;;;;0.98;0.47;;;;;;;;;;5038963;28;20121;-48
2021/05/18 07:21:26;;;;;;;1.55;0.50;;;;;;;;;;5048640;28;20057;-48
2021/05/18 07:23:54;;;;;;;0.32;0.32;;;;;;;;;;5041664;28;20137;-47
2021/05/18 07:26:21;;;;;;;0.45;0.40;;;;;;;;;;5047728;28;20487;-47
2021/05/18 07:28:47;;;;;;;1.25;0.38;;;;;;;;;;5040460;28;20077;-49
2021/05/18 07:31:14;;;;;;;0.82;0.40;;;;;;;;;;5042284;28;20079;-49
2021/05/18 07:33:41;;;;;;;0.75;0.45;;;;;;;;;;5055312;28;20091;-51
2021/05/18 07:36:09;;;;;;;4.85;0.73;;;;;;;;;;5068693;28;20048;-48
2021/05/18 07:38:37;;;;;;;1.17;0.40;;;;;;;;;;5060202;28;20063;-47
2021/05/18 07:41:04;;;;;;;1.70;0.50;;;;;;;;;;5057836;28;20132;-48
2021/05/18 07:43:31;;;;;;;0.55;0.50;;;;;;;;;;5039947;28;20052;-48
2021/05/18 07:46:00;;;;;;;0.68;0.50;;;;;;;;;;5048031;28;20567;-50
2021/05/18 07:59:22;;;;;;;3.03;0.40;;;;;;;;;;5040293;28;20515;-47
2021/05/18 08:07:20;;;;;;;0.47;0.30;;;;;;;;;;5047655;28;20099;-47
2021/05/18 08:09:52;;;;;;;1.27;0.43;;;;;;;;;;5046939;28;20067;-46
2021/05/18 08:12:19;;;;;;;1.02;0.50;;;;;;;;;;5059992;28;20090;-46
2021/05/18 08:15:09;;;;;;;1.15;0.50;;;;;;;;;;5043630;28;20078;-50
2021/05/18 08:17:43;;;;;;;0.60;0.50;;;;;;;;;;5052253;28;20057;-48
2021/05/18 09:33:30;;;;;;;1.75;0.98;;;;;;;;;;5042070;28;20055;-52
2021/05/18 10:38:27;;;;;;;0.32;0.32;;;;;;;;;;5039950;28;20410;-51
2021/05/18 10:41:09;;;;;;;2.15;0.88;;;;;;;;;;5038921;28;20473;-49
2021/05/18 10:43:36;;;;;;;0.50;0.50;;;;;;;;;;5031765;28;20080;-48
2021/05/18 10:46:07;;;;;;;1.27;0.43;;;;;;;;;;5031462;28;20414;-52
2021/05/18 10:48:37;;;;;;;0.70;0.30;;;;;;;;;;5044286;28;20091;-50
2021/05/18 10:51:31;;;;;;;0.30;0.20;;;;;;;;;;5029566;28;20065;-50
2021/05/18 10:54:05;;;;;;;0.40;0.40;;;;;;;;;;5037364;28;20095;-50
2021/05/18 10:56:51;;;;;;;0.55;0.30;;;;;;;;;;5047379;28;20042;-49
2021/05/18 10:59:19;;;;;;;0.45;0.40;;;;;;;;;;5031746;28;20058;-48
2021/05/18 11:01:46;;;;;;;0.30;0.30;;;;;;;;;;5029215;28;20132;-52
2021/05/18 11:04:13;;;;;;;0.65;0.40;;;;;;;;;;5031089;28;20387;-49
2021/05/18 11:06:54;;;;;;;1.17;0.30;;;;;;;;;;5046981;28;20044;-51
2021/05/18 11:09:22;;;;;;;0.50;0.47;;;;;;;;;;5049719;28;20041;-50
2021/05/18 11:11:49;;;;;;;2.58;0.50;;;;;;;;;;5050969;28;20048;-51
2021/05/18 11:14:16;;;;;;;0.70;0.50;;;;;;;;;;5056378;28;20049;-52
2021/05/18 11:16:43;;;;;;;0.90;0.50;;;;;;;;;;5041848;28;20117;-48
2021/05/18 11:19:11;;;;;;;1.42;0.45;;;;;;;;;;5049440;28;20048;-49
2021/05/18 11:21:41;;;;;;;0.77;0.40;;;;;;;;;;5043225;28;20057;-49
2021/05/18 11:24:12;;;;;;;0.15;0.10;;;;;;;;;;5049186;28;20131;-48
2021/05/18 11:26:48;;;;;;;0.60;0.20;;;;;;;;;;5053053;28;20502;-52
2021/05/18 11:29:19;;;;;;;0.35;0.20;;;;;;;;;;5040746;28;20069;-49
2021/05/18 11:31:50;;;;;;;2.50;0.28;;;;;;;;;;5042557;28;20104;-52
2021/05/18 11:34:17;;;;;;;0.70;0.30;;;;;;;;;;5044630;28;20118;-46
2021/05/18 11:36:44;;;;;;;0.43;0.40;;;;;;;;;;5044898;28;20055;-48
2021/05/18 11:39:14;;;;;;;0.50;0.40;;;;;;;;;;5042801;28;20056;-50
2021/05/18 11:41:43;;;;;;;1.13;0.30;;;;;;;;;;5044870;28;20506;-49
2021/05/18 11:44:11;;;;;;;1.27;0.50;;;;;;;;;;5040983;28;20064;-49
2021/05/18 11:46:43;;;;;;;0.45;0.22;;;;;;;;;;5040860;28;20065;-49
2021/05/18 11:49:11;;;;;;;0.40;0.35;;;;;;;;;;5039459;28;20129;-50
2021/05/18 11:51:43;;;;;;;1.02;0.50;;;;;;;;;;5050282;28;20049;-51
2021/05/18 11:54:34;;;;;;;0.90;0.40;;;;;;;;;;5048597;28;20103;-53
2021/05/18 11:57:02;;;;;;;1.52;0.40;;;;;;;;;;5050881;28;20052;-53
2021/05/18 11:59:34;;;;;;;0.30;0.30;;;;;;;;;;5050892;28;20052;-51
2021/05/18 12:02:04;;;;;;;0.95;0.40;;;;;;;;;;5050190;28;20048;-52
2021/05/18 12:04:36;;;;;;;0.65;0.35;;;;;;;;;;5033851;28;20136;-49
2021/05/18 12:07:08;;;;;;;0.65;0.30;;;;;;;;;;5033187;28;20136;-51
2021/05/18 12:09:41;;;;;;;0.93;0.43;;;;;;;;;;5046512;28;20050;-50
2021/05/18 12:12:09;;;;;;;1.20;0.50;;;;;;;;;;5048302;28;20069;-49
2021/05/18 12:14:47;;;;;;;0.75;0.50;;;;;;;;;;5040045;28;20175;-49
2021/05/18 12:17:25;;;;;;;0.30;0.30;;;;;;;;;;5036327;28;20037;-49
2021/05/18 12:19:52;;;;;;;0.40;0.40;;;;;;;;;;5040837;28;20134;-51
2021/05/18 12:22:19;;;;;;;0.20;0.20;;;;;;;;;;5052166;28;20107;-48
2021/05/18 12:24:48;;;;;;;0.20;0.20;;;;;;;;;;5042226;28;20051;-48
2021/05/18 12:27:15;;;;;;;0.35;0.30;;;;;;;;;;5033427;28;20052;-49
2021/05/18 12:29:45;;;;;;;0.88;0.50;;;;;;;;;;5043268;28;20048;-52
2021/05/18 12:32:18;;;;;;;2.03;0.57;;;;;;;;;;5050094;28;20080;-51
2021/05/18 12:34:53;;;;;;;0.73;0.30;;;;;;;;;;5046373;28;20041;-52
2021/05/18 12:37:32;;;;;;;1.23;0.32;;;;;;;;;;5039792;28;20412;-49
2021/05/18 12:40:02;;;;;;;0.38;0.30;;;;;;;;;;5044245;28;20897;-49
2021/05/18 12:42:29;;;;;;;2.85;0.30;;;;;;;;;;5033824;28;20057;-47
2021/05/18 12:44:59;;;;;;;0.38;0.38;;;;;;;;;;5032874;28;20498;-48
2021/05/18 12:47:32;;;;;;;1.00;0.30;;;;;;;;;;5034623;28;20080;-49
2021/05/18 12:50:07;;;;;;;0.40;0.20;;;;;;;;;;5046873;28;20045;-47
2021/05/18 12:52:35;;;;;;;0.67;0.40;;;;;;;;;;5033821;28;20045;-49
2021/05/18 12:55:03;;;;;;;0.52;0.22;;;;;;;;;;5050824;28;20103;-50
2021/05/18 12:57:30;;;;;;;0.60;0.50;;;;;;;;;;5051359;28;20037;-52
2021/05/18 12:59:59;;;;;;;0.90;0.50;;;;;;;;;;5035756;28;20061;-49
2021/05/18 13:02:43;;;;;;;2.00;0.50;;;;;;;;;;5037395;28;20533;-52
2021/05/18 13:05:18;;;;;;;1.30;0.70;;;;;;;;;;5050552;28;20071;-51
2021/05/18 13:08:04;;;;;;;1.60;0.70;;;;;;;;;;5043169;28;20064;-49
2021/05/18 13:11:11;;;;;;;2.65;0.93;;;;;;;;;;5045194;28;20056;-50
2021/05/18 13:13:29;;;;;;;1.08;0.50;;;;;;;;;;5034991;28;20048;-47
2021/05/18 13:16:12;;;;;;;0.60;0.60;;;;;;;;;;5032138;28;20050;-49
2021/05/18 13:18:40;;;;;;;0.57;0.40;;;;;;;;;;5035193;28;20461;-52
2021/05/18 13:21:17;;;;;;;1.17;0.60;;;;;;;;;;5049938;28;20111;-50
2021/05/18 13:26:33;;;;;;;0.65;0.38;;;;;;;;;;5046087;28;20083;-49
2021/05/18 13:29:02;;;;;;;0.40;0.30;;;;;;;;;;5029175;28;20045;-47
2021/05/18 13:31:29;;;;;;;0.70;0.50;;;;;;;;;;5044421;28;20132;-49
2021/05/18 13:33:58;;;;;;;2.08;0.50;;;;;;;;;;5047036;28;20057;-48
2021/05/18 13:36:41;;;;;;;1.85;0.95;;;;;;;;;;5033524;28;20049;-52
2021/05/18 13:39:10;;;;;;;2.50;1.10;;;;;;;;;;5038663;28;20053;-50
2021/05/18 13:41:38;;;;;;;1.08;0.75;;;;;;;;;;5044792;28;20522;-48
2021/05/18 13:44:06;;;;;;;4.25;0.60;;;;;;;;;;5046474;28;20049;-48
2021/05/18 13:46:34;;;;;;;1.65;0.60;;;;;;;;;;5037332;28;20503;-49
2021/05/18 13:49:10;;;;;;;3.15;0.50;;;;;;;;;;5048450;28;20056;-49
2021/05/18 13:51:37;;;;;;;2.15;0.52;;;;;;;;;;5043656;28;20049;-50
2021/05/18 13:54:12;;;;;;;1.75;0.63;;;;;;;;;;5033412;28;20128;-47
2021/05/18 13:56:42;;;;;;;0.77;0.50;;;;;;;;;;5030129;28;20542;-49
2021/05/18 13:59:09;;;;;;;0.60;0.45;;;;;;;;;;5032650;28;20060;-50
2021/05/18 14:01:36;;;;;;;0.52;0.40;;;;;;;;;;5034473;28;20122;-48
2021/05/18 14:04:04;;;;;;;0.50;0.50;;;;;;;;;;5047334;28;20037;-49
2021/05/18 14:06:31;;;;;;;0.70;0.50;;;;;;;;;;5037619;28;20053;-49
2021/05/18 14:08:58;;;;;;;1.10;0.60;;;;;;;;;;5037446;28;20052;-50
2021/05/18 14:11:25;;;;;;;1.95;0.93;;;;;;;;;;5033304;28;20132;-51
2021/05/18 14:13:55;;;;;;;0.95;0.60;;;;;;;;;;5031638;28;20061;-49
2021/05/18 14:16:23;;;;;;;1.75;0.70;;;;;;;;;;5045349;28;20048;-52
2021/05/18 14:18:54;;;;;;;2.50;0.98;;;;;;;;;;5045321;28;20056;-50
2021/05/18 14:21:22;;;;;;;1.80;0.65;;;;;;;;;;5048515;28;20118;-50
2021/05/18 14:26:19;;;;;;;2.20;0.70;;;;;;;;;;5046939;28;20566;-48
2021/05/18 14:28:46;;;;;;;1.17;0.60;;;;;;;;;;5045830;28;20049;-47
2021/05/18 14:31:14;;;;;;;0.55;0.50;;;;;;;;;;5049848;28;20037;-46
2021/05/18 14:33:41;;;;;;;0.60;0.50;;;;;;;;;;5040007;28;20156;-52
2021/05/18 14:36:08;;;;;;;2.45;0.47;;;;;;;;;;5042651;28;20046;-51
2021/05/18 14:38:51;;;;;;;0.57;0.38;;;;;;;;;;5040157;28;20052;-48
2021/05/18 14:44:02;;;;;;;1.23;0.40;;;;;;;;;;5052289;28;20077;-49
2021/05/18 14:47:19;;;;;;;0.95;0.32;;;;;;;;;;5045795;28;20490;-50
2021/05/18 14:54:56;;;;;;;1.38;0.50;;;;;;;;;;5039185;28;20052;-50
2021/05/18 14:57:22;;;;;;;;;;;;;;;;;;5052411;28;20057;-48
2021/05/18 14:59:50;;;;;;;2.17;0.80;;;;;;;;;;5055629;28;19920;-50
2021/05/18 15:02:18;;;;;;;0.40;0.40;;;;;;;;;;5050965;28;20076;-50
2021/05/18 15:04:44;;;;;;;0.28;0.25;;;;;;;;;;5045069;28;20471;-51
2021/05/18 15:07:11;;;;;;;0.88;0.30;;;;;;;;;;5046354;28;20054;-53
2021/05/18 15:09:39;;;;;;;0.30;0.30;;;;;;;;;;5050292;28;20041;-50
2021/05/18 15:12:10;;;;;;;0.40;0.20;;;;;;;;;;5043134;28;20088;-51
2021/05/18 15:14:37;;;;;;;1.35;0.50;;;;;;;;;;5048139;28;20041;-52
2021/05/18 15:17:04;;;;;;;0.50;0.40;;;;;;;;;;5056812;28;20045;-53
2021/05/18 15:19:31;;;;;;;2.33;0.40;;;;;;;;;;5057379;28;20132;-52
2021/05/18 15:21:59;;;;;;;0.57;0.45;;;;;;;;;;5049106;28;20053;-49
2021/05/18 15:24:27;;;;;;;0.70;0.40;;;;;;;;;;5057181;28;20045;-50
2021/05/18 15:26:55;;;;;;;1.45;0.40;;;;;;;;;;5047393;28;20053;-48
2021/05/18 15:29:22;;;;;;;1.17;0.82;;;;;;;;;;5047454;28;20052;-52
2021/05/18 15:31:49;;;;;;;0.40;0.40;;;;;;;;;;5044242;28;20527;-53
2021/05/18 15:34:17;;;;;;;0.82;0.32;;;;;;;;;;5061131;28;20500;-53
2021/05/18 15:36:44;;;;;;;0.45;0.30;;;;;;;;;;5069199;28;20499;-51
2021/05/18 15:39:14;;;;;;;1.15;0.50;;;;;;;;;;5053008;28;20625;-53
2021/05/18 15:41:43;;;;;;;0.50;0.40;;;;;;;;;;5048836;28;20043;-52
2021/05/18 15:44:10;;;;;;;0.95;0.40;;;;;;;;;;5049048;28;20057;-51
2021/05/18 15:46:37;;;;;;;1.20;0.50;;;;;;;;;;5050059;28;20172;-50
2021/05/18 15:49:04;;;;;;;1.55;0.20;;;;;;;;;;5042756;28;20099;-55
2021/05/18 15:51:32;;;;;;;2.15;0.50;;;;;;;;;;5049311;28;20052;-52
2021/05/18 15:53:59;;;;;;;1.90;0.47;;;;;;;;;;5048850;28;20121;-49
2021/05/18 15:56:26;;;;;;;0.57;0.50;;;;;;;;;;5049056;28;20100;-49
2021/05/18 15:58:53;;;;;;;0.63;0.50;;;;;;;;;;5052294;28;20124;-49
2021/05/18 16:01:20;;;;;;;0.30;0.30;;;;;;;;;;5057809;28;20058;-48
2021/05/18 16:03:47;;;;;;;2.53;0.80;;;;;;;;;;5042622;28;20056;-50
2021/05/18 16:06:14;;;;;;;0.68;0.35;;;;;;;;;;5058601;28;20052;-49
2021/05/18 16:11:16;;;;;;;0.98;0.50;;;;;;;;;;5054008;28;20045;-52
2021/05/18 16:13:46;;;;;;;0.52;0.30;;;;;;;;;;5043675;28;20055;-51
2021/05/18 16:16:16;;;;;;;1.00;0.60;;;;;;;;;;5045193;28;20053;-55
2021/05/18 16:18:48;;;;;;;1.75;0.63;;;;;;;;;;5040845;22;20042;-50
2021/05/18 16:21:18;;;;;;;1.00;0.52;;;;;;;;;;5010655;28;20094;-50
2021/05/18 16:23:47;;;;;;;0.40;0.40;;;;;;;;;;5012199;28;20140;-46
2021/05/18 16:26:19;;;;;;;0.30;0.30;;;;;;;;;;5006419;28;20150;-48
2021/05/18 16:28:46;;;;;;;1.10;0.35;;;;;;;;;;4994351;28;20058;-48
2021/05/18 16:31:13;;;;;;;0.50;0.50;;;;;;;;;;4994584;28;20046;-48
2021/05/18 16:33:41;;;;;;;4.13;1.50;;;;;;;;;;4994262;28;20084;-47
2021/05/18 16:36:08;;;;;;;1.88;0.75;;;;;;;;;;4994479;28;20404;-48
2021/05/18 16:38:36;;;;;;;2.08;0.60;;;;;;;;;;4993801;28;20125;-47
2021/05/18 16:41:21;;;;;;;1.33;0.50;;;;;;;;;;4993505;28;20133;-49
2021/05/18 16:43:47;;;;;;;0.80;0.40;;;;;;;;;;4994341;28;20050;-48
2021/05/18 16:46:14;;;;;;;1.05;0.52;;;;;;;;;;4994179;28;20077;-47
2021/05/18 16:48:42;;;;;;;1.33;0.80;;;;;;;;;;4994081;28;20064;-51
2021/05/18 16:51:09;;;;;;;0.40;0.40;;;;;;;;;;4993165;28;20064;-48
2021/05/18 16:53:36;;;;;;;1.58;0.60;;;;;;;;;;4993017;28;20053;-44
2021/05/18 16:56:05;;;;;;;0.68;0.40;;;;;;;;;;4993820;28;20050;-48
2021/05/18 16:58:32;;;;;;;2.75;0.57;;;;;;;;;;4993583;28;20047;-50
2021/05/18 17:00:59;;;;;;;2.17;0.65;;;;;;;;;;4993658;28;20084;-50
2021/05/18 17:03:26;;;;;;;0.40;0.40;;;;;;;;;;4994022;28;20092;-48
2021/05/18 17:05:53;;;;;;;2.35;1.27;;;;;;;;;;4994183;28;20120;-46
2021/05/18 17:08:20;;;;;;;1.45;1.15;;;;;;;;;;4993660;28;20474;-44
2021/05/18 17:10:47;;;;;;;1.02;0.57;;;;;;;;;;4993682;28;20050;-44
2021/05/18 17:13:14;;;;;;;1.75;0.70;;;;;;;;;;4993925;28;20043;-52
2021/05/18 17:15:41;;;;;;;0.57;0.50;;;;;;;;;;4993080;28;20064;-50
2021/05/18 17:18:08;;;;;;;1.00;0.60;;;;;;;;;;4993255;28;20058;-47
2021/05/18 17:20:35;;;;;;;1.15;0.60;;;;;;;;;;4994010;28;20050;-45
2021/05/18 17:23:02;;;;;;;1.73;0.60;;;;;;;;;;4993815;28;20058;-44
2021/05/18 17:25:29;;;;;;;3.88;2.00;;;;;;;;;;4993434;28;20054;-47
2021/05/18 17:27:56;;;;;;;0.82;0.70;;;;;;;;;;4992984;28;20050;-47
2021/05/18 17:30:25;;;;;;;1.42;0.80;;;;;;;;;;4993004;28;20165;-45
2021/05/18 17:32:53;;;;;;;2.00;0.88;;;;;;;;;;5006990;28;20046;-45
2021/05/18 17:35:21;;;;;;;1.90;0.70;;;;;;;;;;5012055;28;20746;-44
2021/05/18 17:37:48;;;;;;;1.27;0.60;;;;;;;;;;4999605;28;20053;-49
2021/05/18 17:40:15;;;;;;;0.68;0.50;;;;;;;;;;4993151;28;20054;-44
2021/05/18 17:42:42;;;;;;;1.73;0.70;;;;;;;;;;4993163;28;20061;-48
2021/05/18 17:45:12;;;;;;;2.05;0.80;;;;;;;;;;4993242;28;20133;-43
2021/05/18 17:47:41;;;;;;;1.00;0.60;;;;;;;;;;4993286;28;20137;-47
2021/05/18 17:50:09;;;;;;;1.10;0.60;;;;;;;;;;4993159;28;20054;-48
2021/05/18 17:52:36;;;;;;;3.28;0.70;;;;;;;;;;4993017;28;20480;-48
2021/05/18 17:55:07;;;;;;;1.73;0.70;;;;;;;;;;4993194;28;20054;-44
2021/05/18 17:57:34;;;;;;;1.85;0.70;;;;;;;;;;4993236;28;20138;-47
2021/05/18 18:00:01;;;;;;;1.67;0.82;;;;;;;;;;4991970;28;20081;-45
2021/05/18 18:02:40;;;;;;;0.82;0.70;;;;;;;;;;4993341;28;20054;-51
2021/05/18 18:05:07;;;;;;;1.17;0.70;;;;;;;;;;4993087;28;20051;-45
2021/05/18 18:07:35;;;;;;;0.85;0.63;;;;;;;;;;4999556;28;20054;-45
2021/05/18 18:10:04;;;;;;;2.00;0.70;;;;;;;;;;5009900;28;20050;-43
2021/05/18 18:12:31;;;;;;;2.13;0.70;;;;;;;;;;5012453;28;20177;-44
2021/05/18 18:14:57;;;;;;;1.90;0.70;;;;;;;;;;5005504;28;20038;-45
2021/05/18 18:17:25;;;;;;;1.48;0.63;;;;;;;;;;4992463;28;20561;-44
2021/05/18 18:19:53;;;;;;;2.38;0.68;;;;;;;;;;5003826;28;20080;-45
2021/05/18 18:22:20;;;;;;;0.95;0.70;;;;;;;;;;5011345;28;20076;-48
2021/05/18 18:24:48;;;;;;;2.40;0.70;;;;;;;;;;4993183;28;20066;-45
2021/05/18 18:27:17;;;;;;;1.10;0.70;;;;;;;;;;4992542;28;20056;-45
2021/05/18 18:29:44;;;;;;;1.85;0.70;;;;;;;;;;4992302;28;20133;-46
2021/05/18 18:32:11;;;;;;;1.42;1.05;;;;;;;;;;4992752;28;20042;-44
2021/05/18 18:34:40;;;;;;;2.63;0.88;;;;;;;;;;4992756;28;20077;-45
2021/05/18 18:37:09;;;;;;;2.63;0.95;;;;;;;;;;4990832;28;20114;-48
2021/05/18 18:39:36;;;;;;;0.98;0.70;;;;;;;;;;4991451;28;20050;-45
2021/05/18 18:42:07;;;;;;;1.70;0.88;;;;;;;;;;4993675;28;20046;-50
2021/05/18 18:44:34;;;;;;;2.05;0.70;;;;;;;;;;4996868;28;20093;-48
2021/05/18 18:47:01;;;;;;;3.95;1.00;;;;;;;;;;4995917;28;20054;-44
2021/05/18 18:49:34;;;;;;;2.25;0.98;;;;;;;;;;4996603;28;20086;-45
2021/05/18 18:52:03;;;;;;;2.67;1.00;;;;;;;;;;4996058;28;20504;-47
2021/05/18 18:54:30;;;;;;;1.40;0.90;;;;;;;;;;4996374;28;20046;-45
2021/05/18 18:56:57;;;;;;;2.80;1.63;;;;;;;;;;4996176;28;20140;-45
2021/05/18 18:59:25;;;;;;;1.05;0.70;;;;;;;;;;4999957;28;20053;-44
2021/05/18 19:01:56;;;;;;;1.45;1.00;;;;;;;;;;5012238;28;20050;-45
2021/05/18 19:04:26;;;;;;;1.95;1.13;;;;;;;;;;5014492;28;20049;-47
2021/05/18 19:14:37;;;;;;;6.25;4.55;;;;;;;;;;5012557;28;20167;-48
2021/05/18 19:17:04;;;;;;;3.70;2.00;;;;;;;;;;5003722;28;20754;-52
2021/05/18 19:19:31;;;;;;;2.17;0.95;;;;;;;;;;5012400;28;20044;-45
2021/05/18 19:21:59;;;;;;;10.27;7.85;;;;;;;;;;5009193;28;20057;-44
2021/05/18 19:24:26;;;;;;;1.80;1.10;;;;;;;;;;5012604;28;20068;-45
2021/05/18 19:26:53;;;;;;;3.17;1.40;;;;;;;;;;5007729;28;20116;-47
2021/05/18 19:29:21;;;;;;;6.53;3.47;;;;;;;;;;5006211;28;20526;-43
2021/05/18 19:31:47;;;;;;;4.40;1.60;;;;;;;;;;5017156;28;20103;-48
2021/05/18 19:34:22;;;;;;;2.20;1.30;;;;;;;;;;5013956;28;20050;-45
2021/05/18 19:42:13;;;;;;;5.35;3.25;;;;;;;;;;5013605;28;20151;-46
2021/05/18 19:44:59;;;;;;;2.92;1.73;;;;;;;;;;5016896;28;20058;-46
2021/05/18 19:50:15;;;;;;;1.95;1.30;;;;;;;;;;5007972;28;20049;-44
2021/05/18 19:52:44;;;;;;;4.40;1.30;;;;;;;;;;5014731;28;20042;-45
2021/05/18 19:55:12;;;;;;;2.42;1.20;;;;;;;;;;5009572;28;20050;-45
2021/05/18 19:57:49;;;;;;;3.70;1.20;;;;;;;;;;5012375;28;20092;-48
2021/05/18 20:17:04;;;;;;;1.50;0.77;;;;;;;;;;5007823;28;20050;-46
2021/05/18 20:19:44;;;;;;;3.55;1.20;;;;;;;;;;5010357;28;20122;-44
2021/05/18 20:22:17;;;;;;;2.38;1.25;;;;;;;;;;5013260;28;20058;-49
2021/05/18 20:24:44;;;;;;;2.95;1.40;;;;;;;;;;5004018;28;20100;-46
2021/05/18 20:27:12;;;;;;;1.60;1.00;;;;;;;;;;5012817;28;20411;-46
2021/05/18 20:29:40;;;;;;;5.63;1.50;;;;;;;;;;5001191;28;20077;-48
2021/05/18 20:32:10;;;;;;;3.15;1.20;;;;;;;;;;5013477;28;20054;-46
2021/05/18 20:34:53;;;;;;;2.22;0.93;;;;;;;;;;5013209;28;20049;-46
2021/05/18 20:40:06;;;;;;;2.20;1.13;;;;;;;;;;5012188;28;20479;-49
2021/05/18 20:42:33;;;;;;;2.90;0.98;;;;;;;;;;5011096;28;20129;-47